sensor_id;sensor_type;location;lat;lon;timestamp;P1;durP1;ratioP1;P2;durP2;ratioP2
13079;SDS011;6606;49.154;9.280;2022-10-26T00:02:02;6.97;;;3.13;;
13079;SDS011;6606;49.154;9.280;2022-10-26T00:04:29;5.00;;;2.33;;
13079;SDS011;6606;49.154;9.280;2022-10-26T00:06:55;7.97;;;2.80;;
13079;SDS011;6606;49.154;9.280;2022-10-26T00:09:22;5.60;;;2.73;;
13079;SDS011;6606;49.154;9.280;2022-10-26T00:11:49;4.13;;;2.77;;
13079;SDS011;6606;49.154;9.280;2022-10-26T00:14:15;9.50;;;3.67;;
13079;SDS011;6606;49.154;9.280;2022-10-26T00:16:43;9.20;;;3.47;;
13079;SDS011;6606;49.154;9.280;2022-10-26T00:19:10;8.57;;;3.67;;
13079;SDS011;6606;49.154;9.280;2022-10-26T00:21:37;8.07;;;4.10;;
13079;SDS011;6606;49.154;9.280;2022-10-26T00:24:03;4.93;;;3.03;;
13079;SDS011;6606;49.154;9.280;2022-10-26T00:26:30;6.53;;;3.00;;
13079;SDS011;6606;49.154;9.280;2022-10-26T00:28:57;8.90;;;3.90;;
13079;SDS011;6606;49.154;9.280;2022-10-26T00:31:24;6.67;;;3.80;;
13079;SDS011;6606;49.154;9.280;2022-10-26T00:33:55;7.40;;;3.87;;
13079;SDS011;6606;49.154;9.280;2022-10-26T00:36:23;4.80;;;3.20;;
13079;SDS011;6606;49.154;9.280;2022-10-26T00:38:52;6.90;;;3.30;;
13079;SDS011;6606;49.154;9.280;2022-10-26T00:41:21;9.73;;;3.60;;
13079;SDS011;6606;49.154;9.280;2022-10-26T00:43:48;5.93;;;3.60;;
13079;SDS011;6606;49.154;9.280;2022-10-26T00:46:16;5.83;;;3.10;;
13079;SDS011;6606;49.154;9.280;2022-10-26T00:48:46;5.03;;;2.97;;
13079;SDS011;6606;49.154;9.280;2022-10-26T00:51:19;8.07;;;4.17;;
13079;SDS011;6606;49.154;9.280;2022-10-26T00:53:50;8.27;;;3.60;;
13079;SDS011;6606;49.154;9.280;2022-10-26T00:56:18;7.30;;;3.13;;
13079;SDS011;6606;49.154;9.280;2022-10-26T00:58:46;6.67;;;2.80;;
13079;SDS011;6606;49.154;9.280;2022-10-26T01:01:13;6.30;;;3.40;;
13079;SDS011;6606;49.154;9.280;2022-10-26T01:03:40;6.87;;;3.33;;
13079;SDS011;6606;49.154;9.280;2022-10-26T01:06:08;9.80;;;3.47;;
13079;SDS011;6606;49.154;9.280;2022-10-26T01:08:38;5.87;;;3.03;;
13079;SDS011;6606;49.154;9.280;2022-10-26T01:11:06;6.53;;;3.43;;
13079;SDS011;6606;49.154;9.280;2022-10-26T01:13:33;5.43;;;3.27;;
13079;SDS011;6606;49.154;9.280;2022-10-26T01:16:05;8.10;;;3.10;;
13079;SDS011;6606;49.154;9.280;2022-10-26T01:18:43;5.33;;;3.27;;
13079;SDS011;6606;49.154;9.280;2022-10-26T01:21:32;7.97;;;3.80;;
13079;SDS011;6606;49.154;9.280;2022-10-26T01:24:19;9.77;;;3.80;;
13079;SDS011;6606;49.154;9.280;2022-10-26T01:27:01;9.33;;;3.10;;
13079;SDS011;6606;49.154;9.280;2022-10-26T01:32:44;4.97;;;2.77;;
13079;SDS011;6606;49.154;9.280;2022-10-26T01:35:17;6.57;;;3.17;;
13079;SDS011;6606;49.154;9.280;2022-10-26T01:38:05;8.13;;;3.43;;
13079;SDS011;6606;49.154;9.280;2022-10-26T01:40:38;8.03;;;3.83;;
13079;SDS011;6606;49.154;9.280;2022-10-26T01:43:10;5.23;;;3.27;;
13079;SDS011;6606;49.154;9.280;2022-10-26T01:45:42;9.10;;;3.13;;
13079;SDS011;6606;49.154;9.280;2022-10-26T01:48:11;6.57;;;3.77;;
13079;SDS011;6606;49.154;9.280;2022-10-26T01:50:41;5.93;;;3.50;;
13079;SDS011;6606;49.154;9.280;2022-10-26T01:53:10;7.93;;;3.40;;
13079;SDS011;6606;49.154;9.280;2022-10-26T01:55:39;11.03;;;4.27;;
13079;SDS011;6606;49.154;9.280;2022-10-26T01:58:12;9.47;;;3.60;;
13079;SDS011;6606;49.154;9.280;2022-10-26T02:01:11;8.27;;;3.80;;
13079;SDS011;6606;49.154;9.280;2022-10-26T02:04:10;4.87;;;3.30;;
13079;SDS011;6606;49.154;9.280;2022-10-26T02:06:51;6.27;;;3.97;;
13079;SDS011;6606;49.154;9.280;2022-10-26T02:09:27;7.03;;;3.53;;
13079;SDS011;6606;49.154;9.280;2022-10-26T02:12:04;8.50;;;3.23;;
13079;SDS011;6606;49.154;9.280;2022-10-26T02:14:39;4.60;;;3.23;;
13079;SDS011;6606;49.154;9.280;2022-10-26T02:17:15;4.67;;;3.20;;
13079;SDS011;6606;49.154;9.280;2022-10-26T02:19:49;6.03;;;3.40;;
13079;SDS011;6606;49.154;9.280;2022-10-26T02:22:21;6.43;;;3.60;;
13079;SDS011;6606;49.154;9.280;2022-10-26T02:24:52;11.37;;;3.47;;
13079;SDS011;6606;49.154;9.280;2022-10-26T02:27:20;7.97;;;3.77;;
13079;SDS011;6606;49.154;9.280;2022-10-26T02:29:49;7.90;;;3.80;;
13079;SDS011;6606;49.154;9.280;2022-10-26T02:32:20;7.13;;;3.70;;
13079;SDS011;6606;49.154;9.280;2022-10-26T02:34:48;7.07;;;3.30;;
13079;SDS011;6606;49.154;9.280;2022-10-26T02:37:17;7.27;;;3.90;;
13079;SDS011;6606;49.154;9.280;2022-10-26T02:39:47;8.50;;;4.13;;
13079;SDS011;6606;49.154;9.280;2022-10-26T02:42:17;8.53;;;4.00;;
13079;SDS011;6606;49.154;9.280;2022-10-26T02:44:45;7.70;;;3.50;;
13079;SDS011;6606;49.154;9.280;2022-10-26T02:47:16;6.13;;;2.97;;
13079;SDS011;6606;49.154;9.280;2022-10-26T02:49:46;5.60;;;3.17;;
13079;SDS011;6606;49.154;9.280;2022-10-26T02:52:14;6.00;;;3.20;;
13079;SDS011;6606;49.154;9.280;2022-10-26T02:54:49;5.47;;;3.00;;
13079;SDS011;6606;49.154;9.280;2022-10-26T02:57:22;5.83;;;3.10;;
13079;SDS011;6606;49.154;9.280;2022-10-26T02:59:53;7.17;;;3.77;;
13079;SDS011;6606;49.154;9.280;2022-10-26T03:02:21;4.60;;;3.00;;
13079;SDS011;6606;49.154;9.280;2022-10-26T03:04:50;8.07;;;3.73;;
13079;SDS011;6606;49.154;9.280;2022-10-26T03:07:20;5.03;;;3.37;;
13079;SDS011;6606;49.154;9.280;2022-10-26T03:09:48;5.50;;;3.03;;
13079;SDS011;6606;49.154;9.280;2022-10-26T03:12:15;5.57;;;3.10;;
13079;SDS011;6606;49.154;9.280;2022-10-26T03:14:41;8.20;;;3.93;;
13079;SDS011;6606;49.154;9.280;2022-10-26T03:17:08;9.50;;;4.97;;
13079;SDS011;6606;49.154;9.280;2022-10-26T03:19:34;9.83;;;4.43;;
13079;SDS011;6606;49.154;9.280;2022-10-26T03:22:02;9.43;;;4.10;;
13079;SDS011;6606;49.154;9.280;2022-10-26T03:24:29;6.43;;;3.93;;
13079;SDS011;6606;49.154;9.280;2022-10-26T03:26:56;10.43;;;4.10;;
13079;SDS011;6606;49.154;9.280;2022-10-26T03:29:22;6.90;;;3.60;;
13079;SDS011;6606;49.154;9.280;2022-10-26T03:31:49;5.00;;;3.27;;
13079;SDS011;6606;49.154;9.280;2022-10-26T03:34:18;5.73;;;3.00;;
13079;SDS011;6606;49.154;9.280;2022-10-26T03:36:45;5.30;;;3.27;;
13079;SDS011;6606;49.154;9.280;2022-10-26T03:39:13;5.90;;;3.03;;
13079;SDS011;6606;49.154;9.280;2022-10-26T03:41:40;4.63;;;3.00;;
13079;SDS011;6606;49.154;9.280;2022-10-26T03:44:06;5.40;;;2.60;;
13079;SDS011;6606;49.154;9.280;2022-10-26T03:46:33;4.50;;;3.00;;
13079;SDS011;6606;49.154;9.280;2022-10-26T03:49:00;6.47;;;4.07;;
13079;SDS011;6606;49.154;9.280;2022-10-26T03:51:27;6.17;;;3.77;;
13079;SDS011;6606;49.154;9.280;2022-10-26T03:53:53;5.17;;;3.40;;
13079;SDS011;6606;49.154;9.280;2022-10-26T03:56:21;9.57;;;4.33;;
13079;SDS011;6606;49.154;9.280;2022-10-26T03:58:48;6.93;;;3.57;;
13079;SDS011;6606;49.154;9.280;2022-10-26T04:01:15;5.47;;;2.70;;
13079;SDS011;6606;49.154;9.280;2022-10-26T04:03:41;5.63;;;3.70;;
13079;SDS011;6606;49.154;9.280;2022-10-26T04:06:08;6.13;;;3.00;;
13079;SDS011;6606;49.154;9.280;2022-10-26T04:08:35;5.13;;;3.17;;
13079;SDS011;6606;49.154;9.280;2022-10-26T04:11:01;7.13;;;3.50;;
13079;SDS011;6606;49.154;9.280;2022-10-26T04:13:29;5.73;;;3.07;;
13079;SDS011;6606;49.154;9.280;2022-10-26T04:15:56;6.77;;;3.07;;
13079;SDS011;6606;49.154;9.280;2022-10-26T04:18:23;6.03;;;3.00;;
13079;SDS011;6606;49.154;9.280;2022-10-26T04:20:50;6.87;;;3.37;;
13079;SDS011;6606;49.154;9.280;2022-10-26T04:23:17;8.80;;;3.07;;
13079;SDS011;6606;49.154;9.280;2022-10-26T04:25:44;7.80;;;3.50;;
13079;SDS011;6606;49.154;9.280;2022-10-26T04:28:12;7.73;;;3.07;;
13079;SDS011;6606;49.154;9.280;2022-10-26T04:30:40;5.33;;;3.73;;
13079;SDS011;6606;49.154;9.280;2022-10-26T04:33:07;6.53;;;3.43;;
13079;SDS011;6606;49.154;9.280;2022-10-26T04:35:34;7.07;;;4.00;;
13079;SDS011;6606;49.154;9.280;2022-10-26T04:38:01;7.20;;;3.70;;
13079;SDS011;6606;49.154;9.280;2022-10-26T04:40:30;5.73;;;3.43;;
13079;SDS011;6606;49.154;9.280;2022-10-26T04:42:57;6.07;;;3.33;;
13079;SDS011;6606;49.154;9.280;2022-10-26T04:45:24;5.10;;;3.10;;
13079;SDS011;6606;49.154;9.280;2022-10-26T04:48:01;4.43;;;3.20;;
13079;SDS011;6606;49.154;9.280;2022-10-26T04:50:29;6.97;;;3.60;;
13079;SDS011;6606;49.154;9.280;2022-10-26T04:52:56;6.90;;;3.80;;
13079;SDS011;6606;49.154;9.280;2022-10-26T04:55:23;5.80;;;3.60;;
13079;SDS011;6606;49.154;9.280;2022-10-26T04:57:50;8.10;;;3.20;;
13079;SDS011;6606;49.154;9.280;2022-10-26T05:00:16;7.43;;;4.17;;
13079;SDS011;6606;49.154;9.280;2022-10-26T05:02:43;5.27;;;2.83;;
13079;SDS011;6606;49.154;9.280;2022-10-26T05:05:11;6.03;;;3.77;;
13079;SDS011;6606;49.154;9.280;2022-10-26T05:07:38;5.03;;;3.30;;
13079;SDS011;6606;49.154;9.280;2022-10-26T05:10:05;5.17;;;3.17;;
13079;SDS011;6606;49.154;9.280;2022-10-26T05:12:32;5.87;;;4.03;;
13079;SDS011;6606;49.154;9.280;2022-10-26T05:14:59;8.37;;;4.47;;
13079;SDS011;6606;49.154;9.280;2022-10-26T05:17:26;7.77;;;3.80;;
13079;SDS011;6606;49.154;9.280;2022-10-26T05:19:53;6.30;;;3.53;;
13079;SDS011;6606;49.154;9.280;2022-10-26T05:22:23;6.60;;;3.80;;
13079;SDS011;6606;49.154;9.280;2022-10-26T05:24:50;7.40;;;3.83;;
13079;SDS011;6606;49.154;9.280;2022-10-26T05:27:17;7.97;;;3.97;;
13079;SDS011;6606;49.154;9.280;2022-10-26T05:29:43;10.00;;;3.77;;
13079;SDS011;6606;49.154;9.280;2022-10-26T05:32:10;7.00;;;3.37;;
13079;SDS011;6606;49.154;9.280;2022-10-26T05:34:37;10.13;;;3.90;;
13079;SDS011;6606;49.154;9.280;2022-10-26T05:37:03;7.87;;;4.00;;
13079;SDS011;6606;49.154;9.280;2022-10-26T05:39:31;8.30;;;4.80;;
13079;SDS011;6606;49.154;9.280;2022-10-26T05:41:58;7.27;;;4.40;;
13079;SDS011;6606;49.154;9.280;2022-10-26T05:44:25;6.77;;;3.90;;
13079;SDS011;6606;49.154;9.280;2022-10-26T05:46:51;6.40;;;3.90;;
13079;SDS011;6606;49.154;9.280;2022-10-26T05:49:18;8.37;;;4.50;;
13079;SDS011;6606;49.154;9.280;2022-10-26T05:51:45;6.57;;;4.30;;
13079;SDS011;6606;49.154;9.280;2022-10-26T05:54:11;6.90;;;3.63;;
13079;SDS011;6606;49.154;9.280;2022-10-26T05:56:40;7.17;;;3.80;;
13079;SDS011;6606;49.154;9.280;2022-10-26T05:59:09;10.23;;;4.10;;
13079;SDS011;6606;49.154;9.280;2022-10-26T06:01:42;7.90;;;4.30;;
13079;SDS011;6606;49.154;9.280;2022-10-26T06:04:24;6.63;;;4.60;;
13079;SDS011;6606;49.154;9.280;2022-10-26T06:06:56;4.77;;;3.60;;
13079;SDS011;6606;49.154;9.280;2022-10-26T06:09:24;6.90;;;3.97;;
13079;SDS011;6606;49.154;9.280;2022-10-26T06:11:53;4.50;;;3.20;;
13079;SDS011;6606;49.154;9.280;2022-10-26T06:14:20;12.40;;;4.17;;
13079;SDS011;6606;49.154;9.280;2022-10-26T06:19:51;7.47;;;3.47;;
13079;SDS011;6606;49.154;9.280;2022-10-26T06:22:36;6.03;;;2.87;;
13079;SDS011;6606;49.154;9.280;2022-10-26T06:25:14;6.63;;;3.20;;
13079;SDS011;6606;49.154;9.280;2022-10-26T06:27:50;6.07;;;3.23;;
13079;SDS011;6606;49.154;9.280;2022-10-26T06:30:26;3.80;;;2.90;;
13079;SDS011;6606;49.154;9.280;2022-10-26T06:32:53;6.23;;;2.70;;
13079;SDS011;6606;49.154;9.280;2022-10-26T06:35:25;4.50;;;2.97;;
13079;SDS011;6606;49.154;9.280;2022-10-26T06:38:00;4.93;;;2.70;;
13079;SDS011;6606;49.154;9.280;2022-10-26T06:40:30;5.67;;;2.60;;
13079;SDS011;6606;49.154;9.280;2022-10-26T06:43:00;6.73;;;2.60;;
13079;SDS011;6606;49.154;9.280;2022-10-26T06:45:28;4.70;;;3.00;;
13079;SDS011;6606;49.154;9.280;2022-10-26T06:47:56;4.57;;;2.67;;
13079;SDS011;6606;49.154;9.280;2022-10-26T06:50:29;4.23;;;2.70;;
13079;SDS011;6606;49.154;9.280;2022-10-26T06:53:07;4.57;;;2.70;;
13079;SDS011;6606;49.154;9.280;2022-10-26T06:55:43;6.87;;;2.87;;
13079;SDS011;6606;49.154;9.280;2022-10-26T06:58:14;5.60;;;3.03;;
13079;SDS011;6606;49.154;9.280;2022-10-26T07:00:43;6.83;;;3.47;;
13079;SDS011;6606;49.154;9.280;2022-10-26T07:03:12;5.53;;;3.00;;
13079;SDS011;6606;49.154;9.280;2022-10-26T07:05:38;4.70;;;3.33;;
13079;SDS011;6606;49.154;9.280;2022-10-26T07:08:05;6.43;;;3.13;;
13079;SDS011;6606;49.154;9.280;2022-10-26T07:10:32;5.63;;;3.40;;
13079;SDS011;6606;49.154;9.280;2022-10-26T07:13:03;6.30;;;3.40;;
13079;SDS011;6606;49.154;9.280;2022-10-26T07:15:31;5.27;;;2.83;;
13079;SDS011;6606;49.154;9.280;2022-10-26T07:17:57;6.73;;;2.90;;
13079;SDS011;6606;49.154;9.280;2022-10-26T07:20:24;8.63;;;2.83;;
13079;SDS011;6606;49.154;9.280;2022-10-26T07:22:51;6.57;;;2.93;;
13079;SDS011;6606;49.154;9.280;2022-10-26T07:25:18;4.90;;;2.33;;
13079;SDS011;6606;49.154;9.280;2022-10-26T07:27:45;4.97;;;3.00;;
13079;SDS011;6606;49.154;9.280;2022-10-26T07:30:11;6.20;;;2.50;;
13079;SDS011;6606;49.154;9.280;2022-10-26T07:32:40;7.00;;;3.00;;
13079;SDS011;6606;49.154;9.280;2022-10-26T07:35:07;3.83;;;2.63;;
13079;SDS011;6606;49.154;9.280;2022-10-26T07:37:34;4.83;;;2.40;;
13079;SDS011;6606;49.154;9.280;2022-10-26T07:40:01;6.10;;;2.60;;
13079;SDS011;6606;49.154;9.280;2022-10-26T07:42:28;6.93;;;2.73;;
13079;SDS011;6606;49.154;9.280;2022-10-26T07:44:55;6.60;;;2.53;;
13079;SDS011;6606;49.154;9.280;2022-10-26T07:47:22;6.27;;;2.30;;
13079;SDS011;6606;49.154;9.280;2022-10-26T07:49:50;5.27;;;2.20;;
13079;SDS011;6606;49.154;9.280;2022-10-26T07:52:17;5.60;;;1.90;;
13079;SDS011;6606;49.154;9.280;2022-10-26T07:54:43;3.67;;;2.00;;
13079;SDS011;6606;49.154;9.280;2022-10-26T07:57:10;3.57;;;1.90;;
13079;SDS011;6606;49.154;9.280;2022-10-26T07:59:37;5.20;;;2.10;;
13079;SDS011;6606;49.154;9.280;2022-10-26T08:02:03;5.23;;;1.90;;
13079;SDS011;6606;49.154;9.280;2022-10-26T08:04:30;4.03;;;1.97;;
13079;SDS011;6606;49.154;9.280;2022-10-26T08:06:58;6.00;;;2.33;;
13079;SDS011;6606;49.154;9.280;2022-10-26T08:09:25;5.43;;;2.20;;
13079;SDS011;6606;49.154;9.280;2022-10-26T08:11:51;7.03;;;2.00;;
13079;SDS011;6606;49.154;9.280;2022-10-26T08:14:18;4.22;;;1.95;;
13079;SDS011;6606;49.154;9.280;2022-10-26T08:16:45;5.03;;;2.00;;
13079;SDS011;6606;49.154;9.280;2022-10-26T08:19:14;4.53;;;2.03;;
13079;SDS011;6606;49.154;9.280;2022-10-26T08:21:41;4.50;;;2.10;;
13079;SDS011;6606;49.154;9.280;2022-10-26T08:24:09;8.02;;;2.25;;
13079;SDS011;6606;49.154;9.280;2022-10-26T08:26:36;4.32;;;2.28;;
13079;SDS011;6606;49.154;9.280;2022-10-26T08:29:02;6.55;;;1.90;;
13079;SDS011;6606;49.154;9.280;2022-10-26T08:31:30;5.72;;;2.35;;
13079;SDS011;6606;49.154;9.280;2022-10-26T08:33:56;4.60;;;2.17;;
13079;SDS011;6606;49.154;9.280;2022-10-26T08:36:24;7.63;;;2.22;;
13079;SDS011;6606;49.154;9.280;2022-10-26T08:38:52;5.10;;;1.95;;
13079;SDS011;6606;49.154;9.280;2022-10-26T08:41:21;5.38;;;2.15;;
13079;SDS011;6606;49.154;9.280;2022-10-26T08:43:55;4.63;;;2.00;;
13079;SDS011;6606;49.154;9.280;2022-10-26T08:46:28;5.90;;;2.17;;
13079;SDS011;6606;49.154;9.280;2022-10-26T08:48:59;4.50;;;2.08;;
13079;SDS011;6606;49.154;9.280;2022-10-26T08:51:35;6.38;;;2.10;;
13079;SDS011;6606;49.154;9.280;2022-10-26T08:54:07;4.25;;;2.08;;
13079;SDS011;6606;49.154;9.280;2022-10-26T08:56:40;3.58;;;1.90;;
13079;SDS011;6606;49.154;9.280;2022-10-26T08:59:11;4.35;;;2.05;;
13079;SDS011;6606;49.154;9.280;2022-10-26T09:01:46;6.55;;;2.33;;
13079;SDS011;6606;49.154;9.280;2022-10-26T09:04:14;5.88;;;2.10;;
13079;SDS011;6606;49.154;9.280;2022-10-26T09:06:43;4.68;;;2.10;;
13079;SDS011;6606;49.154;9.280;2022-10-26T09:09:19;6.72;;;2.25;;
13079;SDS011;6606;49.154;9.280;2022-10-26T09:11:53;7.05;;;2.20;;
13079;SDS011;6606;49.154;9.280;2022-10-26T09:14:31;6.20;;;2.20;;
13079;SDS011;6606;49.154;9.280;2022-10-26T09:17:07;5.63;;;1.98;;
13079;SDS011;6606;49.154;9.280;2022-10-26T09:19:46;5.15;;;2.03;;
13079;SDS011;6606;49.154;9.280;2022-10-26T09:22:30;4.78;;;2.00;;
13079;SDS011;6606;49.154;9.280;2022-10-26T09:25:07;5.22;;;2.00;;
13079;SDS011;6606;49.154;9.280;2022-10-26T09:27:45;6.40;;;2.45;;
13079;SDS011;6606;49.154;9.280;2022-10-26T09:30:15;5.07;;;2.10;;
13079;SDS011;6606;49.154;9.280;2022-10-26T09:32:44;6.30;;;2.17;;
13079;SDS011;6606;49.154;9.280;2022-10-26T09:35:14;7.43;;;2.35;;
13079;SDS011;6606;49.154;9.280;2022-10-26T09:37:45;4.97;;;2.50;;
13079;SDS011;6606;49.154;9.280;2022-10-26T09:40:17;5.43;;;2.20;;
13079;SDS011;6606;49.154;9.280;2022-10-26T09:42:53;4.07;;;2.35;;
13079;SDS011;6606;49.154;9.280;2022-10-26T09:45:24;4.95;;;2.15;;
13079;SDS011;6606;49.154;9.280;2022-10-26T09:47:55;5.38;;;2.20;;
13079;SDS011;6606;49.154;9.280;2022-10-26T09:50:27;7.93;;;2.20;;
13079;SDS011;6606;49.154;9.280;2022-10-26T09:52:57;6.32;;;2.20;;
13079;SDS011;6606;49.154;9.280;2022-10-26T09:55:23;9.75;;;2.65;;
13079;SDS011;6606;49.154;9.280;2022-10-26T09:57:53;4.80;;;2.20;;
13079;SDS011;6606;49.154;9.280;2022-10-26T10:00:24;9.23;;;2.15;;
13079;SDS011;6606;49.154;9.280;2022-10-26T10:02:54;5.65;;;2.38;;
13079;SDS011;6606;49.154;9.280;2022-10-26T10:05:26;6.28;;;2.30;;
13079;SDS011;6606;49.154;9.280;2022-10-26T10:08:12;5.65;;;2.20;;
13079;SDS011;6606;49.154;9.280;2022-10-26T10:10:54;4.10;;;2.25;;
13079;SDS011;6606;49.154;9.280;2022-10-26T10:13:24;10.07;;;2.42;;
13079;SDS011;6606;49.154;9.280;2022-10-26T10:15:53;3.63;;;1.92;;
13079;SDS011;6606;49.154;9.280;2022-10-26T10:18:21;6.47;;;2.40;;
13079;SDS011;6606;49.154;9.280;2022-10-26T10:20:53;6.60;;;2.38;;
13079;SDS011;6606;49.154;9.280;2022-10-26T10:23:25;9.15;;;2.50;;
13079;SDS011;6606;49.154;9.280;2022-10-26T10:25:57;5.32;;;2.35;;
13079;SDS011;6606;49.154;9.280;2022-10-26T10:28:27;6.47;;;2.60;;
13079;SDS011;6606;49.154;9.280;2022-10-26T10:30:55;7.63;;;2.50;;
13079;SDS011;6606;49.154;9.280;2022-10-26T10:33:31;7.47;;;2.28;;
13079;SDS011;6606;49.154;9.280;2022-10-26T10:35:59;5.22;;;2.15;;
13079;SDS011;6606;49.154;9.280;2022-10-26T10:38:27;6.88;;;2.60;;
13079;SDS011;6606;49.154;9.280;2022-10-26T10:40:55;6.05;;;2.40;;
13079;SDS011;6606;49.154;9.280;2022-10-26T10:43:24;5.18;;;2.25;;
13079;SDS011;6606;49.154;9.280;2022-10-26T10:45:53;6.65;;;2.28;;
13079;SDS011;6606;49.154;9.280;2022-10-26T10:48:23;9.23;;;2.45;;
13079;SDS011;6606;49.154;9.280;2022-10-26T10:50:53;8.57;;;2.53;;
13079;SDS011;6606;49.154;9.280;2022-10-26T10:53:23;8.55;;;2.40;;
13079;SDS011;6606;49.154;9.280;2022-10-26T10:56:00;5.38;;;2.05;;
13079;SDS011;6606;49.154;9.280;2022-10-26T10:58:34;6.22;;;2.47;;
13079;SDS011;6606;49.154;9.280;2022-10-26T11:01:11;5.00;;;2.53;;
13079;SDS011;6606;49.154;9.280;2022-10-26T11:03:46;4.60;;;2.20;;
13079;SDS011;6606;49.154;9.280;2022-10-26T11:06:24;5.72;;;2.20;;
13079;SDS011;6606;49.154;9.280;2022-10-26T11:08:54;7.80;;;2.58;;
13079;SDS011;6606;49.154;9.280;2022-10-26T11:11:27;6.20;;;2.63;;
13079;SDS011;6606;49.154;9.280;2022-10-26T11:13:59;6.70;;;2.50;;
13079;SDS011;6606;49.154;9.280;2022-10-26T11:16:33;6.47;;;2.65;;
13079;SDS011;6606;49.154;9.280;2022-10-26T11:19:04;7.30;;;2.78;;
13079;SDS011;6606;49.154;9.280;2022-10-26T11:21:40;8.02;;;3.03;;
13079;SDS011;6606;49.154;9.280;2022-10-26T11:24:13;8.38;;;2.80;;
13079;SDS011;6606;49.154;9.280;2022-10-26T11:26:44;6.40;;;2.40;;
13079;SDS011;6606;49.154;9.280;2022-10-26T11:29:25;6.40;;;3.03;;
13079;SDS011;6606;49.154;9.280;2022-10-26T11:32:00;5.72;;;2.83;;
13079;SDS011;6606;49.154;9.280;2022-10-26T11:34:33;5.70;;;3.25;;
13079;SDS011;6606;49.154;9.280;2022-10-26T11:37:07;6.47;;;3.60;;
13079;SDS011;6606;49.154;9.280;2022-10-26T11:39:41;9.32;;;4.32;;
13079;SDS011;6606;49.154;9.280;2022-10-26T11:42:14;8.30;;;2.97;;
13079;SDS011;6606;49.154;9.280;2022-10-26T11:44:48;6.70;;;2.78;;
13079;SDS011;6606;49.154;9.280;2022-10-26T11:47:21;4.38;;;2.10;;
13079;SDS011;6606;49.154;9.280;2022-10-26T11:49:56;10.95;;;2.70;;
13079;SDS011;6606;49.154;9.280;2022-10-26T11:52:29;7.88;;;2.78;;
13079;SDS011;6606;49.154;9.280;2022-10-26T11:55:03;4.97;;;2.70;;
13079;SDS011;6606;49.154;9.280;2022-10-26T11:57:30;8.18;;;3.97;;
13079;SDS011;6606;49.154;9.280;2022-10-26T11:59:59;5.65;;;2.70;;
13079;SDS011;6606;49.154;9.280;2022-10-26T12:02:31;6.03;;;2.00;;
13079;SDS011;6606;49.154;9.280;2022-10-26T12:05:07;7.35;;;2.28;;
13079;SDS011;6606;49.154;9.280;2022-10-26T12:07:43;7.53;;;2.60;;
13079;SDS011;6606;49.154;9.280;2022-10-26T12:10:20;7.78;;;2.80;;
13079;SDS011;6606;49.154;9.280;2022-10-26T12:12:50;6.28;;;2.20;;
13079;SDS011;6606;49.154;9.280;2022-10-26T12:15:23;6.05;;;2.28;;
13079;SDS011;6606;49.154;9.280;2022-10-26T12:18:00;6.25;;;2.28;;
13079;SDS011;6606;49.154;9.280;2022-10-26T12:20:50;9.27;;;2.78;;
13079;SDS011;6606;49.154;9.280;2022-10-26T12:23:19;6.47;;;2.58;;
13079;SDS011;6606;49.154;9.280;2022-10-26T12:25:48;7.97;;;3.00;;
13079;SDS011;6606;49.154;9.280;2022-10-26T12:34:11;7.40;;;2.47;;
13079;SDS011;6606;49.154;9.280;2022-10-26T12:36:48;9.98;;;2.60;;
13079;SDS011;6606;49.154;9.280;2022-10-26T12:39:36;7.13;;;2.90;;
13079;SDS011;6606;49.154;9.280;2022-10-26T12:45:00;6.00;;;2.40;;
13079;SDS011;6606;49.154;9.280;2022-10-26T12:50:28;7.18;;;2.58;;
13079;SDS011;6606;49.154;9.280;2022-10-26T12:52:55;8.35;;;2.30;;
13079;SDS011;6606;49.154;9.280;2022-10-26T13:04:18;7.50;;;2.03;;
13079;SDS011;6606;49.154;9.280;2022-10-26T13:06:58;8.57;;;2.38;;
13079;SDS011;6606;49.154;9.280;2022-10-26T13:09:42;7.85;;;2.40;;
13079;SDS011;6606;49.154;9.280;2022-10-26T13:12:10;6.20;;;2.85;;
13079;SDS011;6606;49.154;9.280;2022-10-26T13:14:38;7.40;;;2.60;;
13079;SDS011;6606;49.154;9.280;2022-10-26T13:17:20;5.75;;;2.40;;
13079;SDS011;6606;49.154;9.280;2022-10-26T13:19:50;7.53;;;2.20;;
13079;SDS011;6606;49.154;9.280;2022-10-26T13:22:23;4.97;;;2.40;;
13079;SDS011;6606;49.154;9.280;2022-10-26T13:24:51;6.80;;;2.40;;
13079;SDS011;6606;49.154;9.280;2022-10-26T13:30:20;5.38;;;1.80;;
13079;SDS011;6606;49.154;9.280;2022-10-26T13:33:01;5.60;;;2.03;;
13079;SDS011;6606;49.154;9.280;2022-10-26T13:35:32;4.45;;;2.25;;
13079;SDS011;6606;49.154;9.280;2022-10-26T13:38:00;4.90;;;2.10;;
13079;SDS011;6606;49.154;9.280;2022-10-26T13:40:34;6.47;;;3.03;;
13079;SDS011;6606;49.154;9.280;2022-10-26T13:43:04;5.63;;;2.30;;
13079;SDS011;6606;49.154;9.280;2022-10-26T13:45:38;6.20;;;2.53;;
13079;SDS011;6606;49.154;9.280;2022-10-26T13:48:13;5.78;;;2.13;;
13079;SDS011;6606;49.154;9.280;2022-10-26T13:50:45;6.18;;;2.40;;
13079;SDS011;6606;49.154;9.280;2022-10-26T13:53:17;5.88;;;2.25;;
13079;SDS011;6606;49.154;9.280;2022-10-26T13:55:49;9.63;;;3.00;;
13079;SDS011;6606;49.154;9.280;2022-10-26T13:58:19;9.48;;;3.35;;
13079;SDS011;6606;49.154;9.280;2022-10-26T14:01:09;10.70;;;2.85;;
13079;SDS011;6606;49.154;9.280;2022-10-26T14:03:39;7.68;;;2.30;;
13079;SDS011;6606;49.154;9.280;2022-10-26T14:06:07;6.20;;;2.55;;
13079;SDS011;6606;49.154;9.280;2022-10-26T14:08:42;6.50;;;3.05;;
13079;SDS011;6606;49.154;9.280;2022-10-26T14:11:11;5.32;;;2.63;;
13079;SDS011;6606;49.154;9.280;2022-10-26T14:13:41;7.97;;;2.67;;
13079;SDS011;6606;49.154;9.280;2022-10-26T14:16:08;4.93;;;2.30;;
13079;SDS011;6606;49.154;9.280;2022-10-26T14:18:36;4.63;;;2.00;;
13079;SDS011;6606;49.154;9.280;2022-10-26T14:21:04;6.30;;;2.35;;
13079;SDS011;6606;49.154;9.280;2022-10-26T14:23:33;4.13;;;2.55;;
13079;SDS011;6606;49.154;9.280;2022-10-26T14:26:03;6.07;;;2.00;;
13079;SDS011;6606;49.154;9.280;2022-10-26T14:28:30;4.97;;;2.05;;
13079;SDS011;6606;49.154;9.280;2022-10-26T14:31:10;3.72;;;1.90;;
13079;SDS011;6606;49.154;9.280;2022-10-26T14:33:37;6.13;;;2.05;;
13079;SDS011;6606;49.154;9.280;2022-10-26T14:36:04;3.35;;;1.77;;
13079;SDS011;6606;49.154;9.280;2022-10-26T14:38:34;6.03;;;2.47;;
13079;SDS011;6606;49.154;9.280;2022-10-26T14:41:09;6.40;;;2.00;;
13079;SDS011;6606;49.154;9.280;2022-10-26T14:43:36;4.57;;;1.50;;
13079;SDS011;6606;49.154;9.280;2022-10-26T14:46:03;4.85;;;2.35;;
13079;SDS011;6606;49.154;9.280;2022-10-26T14:48:31;7.07;;;2.70;;
13079;SDS011;6606;49.154;9.280;2022-10-26T14:51:00;5.28;;;2.00;;
13079;SDS011;6606;49.154;9.280;2022-10-26T14:53:32;4.63;;;2.15;;
13079;SDS011;6606;49.154;9.280;2022-10-26T14:56:02;4.03;;;2.10;;
13079;SDS011;6606;49.154;9.280;2022-10-26T14:58:32;5.03;;;2.05;;
13079;SDS011;6606;49.154;9.280;2022-10-26T15:03:59;4.82;;;2.58;;
13079;SDS011;6606;49.154;9.280;2022-10-26T15:09:29;4.10;;;2.15;;
13079;SDS011;6606;49.154;9.280;2022-10-26T15:11:58;4.40;;;1.92;;
13079;SDS011;6606;49.154;9.280;2022-10-26T15:14:28;7.88;;;2.40;;
13079;SDS011;6606;49.154;9.280;2022-10-26T15:16:56;5.72;;;2.15;;
13079;SDS011;6606;49.154;9.280;2022-10-26T15:19:23;4.97;;;1.98;;
13079;SDS011;6606;49.154;9.280;2022-10-26T15:21:52;2.80;;;1.75;;
13079;SDS011;6606;49.154;9.280;2022-10-26T15:24:27;4.03;;;1.88;;
13079;SDS011;6606;49.154;9.280;2022-10-26T15:26:57;6.10;;;2.05;;
13079;SDS011;6606;49.154;9.280;2022-10-26T15:29:36;9.13;;;6.80;;
13079;SDS011;6606;49.154;9.280;2022-10-26T15:32:16;7.72;;;4.97;;
13079;SDS011;6606;49.154;9.280;2022-10-26T15:34:46;8.55;;;6.65;;
13079;SDS011;6606;49.154;9.280;2022-10-26T15:37:15;7.35;;;4.45;;
13079;SDS011;6606;49.154;9.280;2022-10-26T15:39:41;6.22;;;3.33;;
13079;SDS011;6606;49.154;9.280;2022-10-26T15:42:08;5.25;;;3.03;;
13079;SDS011;6606;49.154;9.280;2022-10-26T15:44:40;4.57;;;2.50;;
13079;SDS011;6606;49.154;9.280;2022-10-26T15:47:08;6.75;;;2.55;;
13079;SDS011;6606;49.154;9.280;2022-10-26T15:49:43;4.28;;;2.22;;
13079;SDS011;6606;49.154;9.280;2022-10-26T15:52:09;4.05;;;1.90;;
13079;SDS011;6606;49.154;9.280;2022-10-26T15:54:36;4.30;;;2.40;;
13079;SDS011;6606;49.154;9.280;2022-10-26T15:57:03;8.07;;;2.22;;